Time;durP1;ratioP1;P1;durP2;ratioP2;P2;SDS_P1;SDS_P2;PMS_P1;PMS_P2;Temp;Humidity;BMP_temperature;BMP_pressure;BME280_temperature;BME280_humidity;BME280_pressure;Samples;Min_cycle;Max_cycle;Signal;HPM_P1;HPM_P2
2022/11/29 00:01:19;;;;;;;0.20;0.20;;;7.40;99.90;;;;;;5014794;28;20049;-65
2022/11/29 00:03:45;;;;;;;0.10;0.10;;;7.40;99.90;;;;;;5015112;28;20046;-65
2022/11/29 00:06:14;;;;;;;0.98;0.85;;;7.40;99.90;;;;;;5018501;28;20064;-65
2022/11/29 00:08:40;;;;;;;0.10;0.10;;;7.30;99.90;;;;;;5024529;28;20052;-65
2022/11/29 00:11:09;;;;;;;0.15;0.15;;;7.30;99.90;;;;;;5015181;28;20042;-65
2022/11/29 00:13:35;;;;;;;0.10;0.10;;;7.30;99.90;;;;;;5015643;28;20042;-65
2022/11/29 00:16:09;;;;;;;0.20;0.20;;;7.30;99.90;;;;;;5020146;28;20064;-65
2022/11/29 00:18:35;;;;;;;;;;;7.20;99.90;;;;;;5015232;28;20112;-65
2022/11/29 00:21:05;;;;;;;0.30;0.30;;;7.30;99.90;;;;;;5031727;28;20393;-65
2022/11/29 00:23:30;;;;;;;0.22;0.20;;;7.30;99.90;;;;;;5021595;28;20049;-65
2022/11/29 00:26:05;;;;;;;0.20;0.20;;;7.30;99.90;;;;;;5026955;28;20501;-65
2022/11/29 00:28:31;;;;;;;0.40;0.40;;;7.30;99.90;;;;;;5018055;28;20549;-65
2022/11/29 00:30:57;;;;;;;0.03;0.03;;;7.30;99.90;;;;;;5048384;28;20069;-65
2022/11/29 00:33:22;;;;;;;0.35;0.35;;;7.20;99.90;;;;;;5023144;28;20058;-65
2022/11/29 00:35:48;;;;;;;0.28;0.28;;;7.30;99.90;;;;;;5013733;28;20041;-65
2022/11/29 00:38:13;;;;;;;0.65;0.57;;;7.30;99.90;;;;;;5016400;28;20041;-65
2022/11/29 00:40:39;;;;;;;0.10;0.10;;;7.30;99.90;;;;;;5017199;28;20038;-65
2022/11/29 00:43:04;;;;;;;0.20;0.20;;;7.30;99.90;;;;;;5017187;28;20430;-65
2022/11/29 00:45:30;;;;;;;0.30;0.30;;;7.30;99.90;;;;;;5019485;28;20115;-65
2022/11/29 00:47:55;;;;;;;0.10;0.10;;;7.30;99.90;;;;;;5012683;28;20049;-65
2022/11/29 00:50:21;;;;;;;3.00;0.65;;;7.30;99.90;;;;;;5015979;28;20053;-65
2022/11/29 00:52:47;;;;;;;0.65;0.65;;;7.30;99.90;;;;;;5017644;28;20073;-65
2022/11/29 00:55:12;;;;;;;0.40;0.40;;;7.30;99.90;;;;;;5020179;28;20389;-65
2022/11/29 00:57:38;;;;;;;0.10;0.10;;;7.30;99.90;;;;;;5027398;28;20064;-65
2022/11/29 01:00:04;;;;;;;0.32;0.32;;;7.20;99.90;;;;;;5024685;28;20062;-65
2022/11/29 01:02:30;;;;;;;0.63;0.63;;;7.20;99.90;;;;;;5028598;28;20139;-65
2022/11/29 01:04:55;;;;;;;0.10;0.10;;;7.20;99.90;;;;;;5011738;28;20486;-65
2022/11/29 01:07:21;;;;;;;0.20;0.20;;;7.20;99.90;;;;;;5012089;28;20536;-64
2022/11/29 01:09:46;;;;;;;0.20;0.20;;;7.20;99.90;;;;;;5012689;28;20065;-64
2022/11/29 01:12:12;;;;;;;0.10;0.10;;;7.20;99.90;;;;;;5030370;28;20042;-65
2022/11/29 01:14:37;;;;;;;0.32;0.32;;;7.20;99.90;;;;;;5019109;28;20049;-65
2022/11/29 01:17:03;;;;;;;0.38;0.38;;;7.10;99.90;;;;;;5014190;28;20501;-65
2022/11/29 01:19:29;;;;;;;1.95;0.98;;;7.10;99.90;;;;;;5012199;28;20042;-65
2022/11/29 01:21:54;;;;;;;0.52;0.52;;;7.10;99.90;;;;;;5019542;28;20067;-65
2022/11/29 01:24:21;;;;;;;0.10;0.10;;;7.10;99.90;;;;;;5019051;28;20056;-66
2022/11/29 01:26:46;;;;;;;0.90;0.90;;;7.10;99.90;;;;;;5014951;28;20047;-65
2022/11/29 01:29:12;;;;;;;0.38;0.38;;;7.10;99.90;;;;;;5018125;28;20103;-65
2022/11/29 01:31:38;;;;;;;0.00;0.00;;;7.10;99.90;;;;;;5026681;28;20049;-65
2022/11/29 01:34:05;;;;;;;0.20;0.20;;;7.10;99.90;;;;;;5014263;28;20665;-65
2022/11/29 01:36:31;;;;;;;0.10;0.10;;;7.10;99.90;;;;;;5030184;28;20033;-65
2022/11/29 01:39:02;;;;;;;0.10;0.10;;;7.00;99.90;;;;;;5026042;28;20076;-65
2022/11/29 01:41:31;;;;;;;0.25;0.25;;;6.90;99.90;;;;;;5015140;28;20053;-65
2022/11/29 01:44:25;;;;;;;0.10;0.10;;;7.00;99.90;;;;;;5015387;28;20038;-65
2022/11/29 01:46:52;;;;;;;;;;;6.90;99.90;;;;;;5012950;28;20282;-65
2022/11/29 01:49:25;;;;;;;0.73;0.73;;;6.90;99.90;;;;;;5023675;28;19921;-64
2022/11/29 01:51:59;;;;;;;0.80;0.80;;;6.90;99.90;;;;;;5019438;28;20056;-65
2022/11/29 01:54:25;;;;;;;;;;;6.80;99.90;;;;;;5011833;28;20042;-65
2022/11/29 01:56:51;;;;;;;0.10;0.10;;;6.90;99.90;;;;;;5009592;28;20402;-65
2022/11/29 01:59:23;;;;;;;0.10;0.10;;;6.80;99.90;;;;;;5026653;28;20049;-65
2022/11/29 02:01:50;;;;;;;0.10;0.10;;;6.80;99.90;;;;;;5023002;28;20798;-65
2022/11/29 02:04:16;;;;;;;0.20;0.20;;;6.80;99.90;;;;;;5021148;28;20129;-65
2022/11/29 02:06:42;;;;;;;0.68;0.68;;;6.80;99.90;;;;;;5014867;28;20169;-65
2022/11/29 02:09:20;;;;;;;0.10;0.10;;;6.80;99.90;;;;;;5022640;28;20512;-65
2022/11/29 02:11:51;;;;;;;0.10;0.10;;;6.80;99.90;;;;;;5014253;28;20057;-65
2022/11/29 02:14:38;;;;;;;0.38;0.38;;;6.90;99.90;;;;;;5022018;28;20034;-65
2022/11/29 02:17:22;;;;;;;0.35;0.35;;;6.90;99.90;;;;;;5014326;28;20042;-65
2022/11/29 02:20:29;;;;;;;0.10;0.10;;;6.90;99.90;;;;;;5015818;28;20157;-65
2022/11/29 02:23:04;;;;;;;0.20;0.20;;;6.90;99.90;;;;;;5012511;28;20481;-65
2022/11/29 02:25:59;;;;;;;0.10;0.10;;;6.90;99.90;;;;;;5023426;28;20057;-65
2022/11/29 02:29:02;;;;;;;0.10;0.10;;;6.90;99.90;;;;;;4992577;28;20050;-65
2022/11/29 02:31:52;;;;;;;2.50;0.70;;;6.80;99.90;;;;;;5021333;28;20120;-65
2022/11/29 02:35:11;;;;;;;2.42;1.38;;;6.90;99.90;;;;;;5010351;28;20050;-66
2022/11/29 02:38:04;;;;;;;0.25;0.25;;;6.90;99.90;;;;;;5010076;28;20486;-65
2022/11/29 02:41:05;;;;;;;0.15;0.15;;;6.90;99.90;;;;;;5025948;28;20095;-65
2022/11/29 02:44:03;;;;;;;0.73;0.68;;;6.90;99.90;;;;;;5014888;28;20076;-65
2022/11/29 02:46:48;;;;;;;0.20;0.20;;;6.80;99.90;;;;;;5019151;28;20299;-65
2022/11/29 02:49:51;;;;;;;0.10;0.10;;;6.80;99.90;;;;;;5007732;28;20149;-65
2022/11/29 02:52:33;;;;;;;0.20;0.20;;;6.80;99.90;;;;;;5017004;28;20128;-65
2022/11/29 02:55:23;;;;;;;0.20;0.20;;;6.80;99.90;;;;;;5023541;28;20692;-65
2022/11/29 02:58:15;;;;;;;0.20;0.20;;;6.80;99.90;;;;;;5024790;28;20124;-65
2022/11/29 03:00:50;;;;;;;0.55;0.43;;;6.70;99.90;;;;;;5010447;28;20424;-65
2022/11/29 03:03:35;;;;;;;0.10;0.10;;;6.70;99.90;;;;;;5018111;28;20038;-65
2022/11/29 03:06:12;;;;;;;0.10;0.10;;;6.70;99.90;;;;;;5013602;28;20041;-65
2022/11/29 03:09:06;;;;;;;0.10;0.10;;;6.70;99.90;;;;;;5015821;28;20473;-65
2022/11/29 03:12:01;;;;;;;0.47;0.47;;;6.70;99.90;;;;;;5013212;28;20042;-65
2022/11/29 03:15:10;;;;;;;4.95;1.10;;;6.60;99.90;;;;;;5013287;28;20059;-65
2022/11/29 03:18:09;;;;;;;0.68;0.68;;;6.60;99.90;;;;;;5009504;28;20088;-64
2022/11/29 03:20:56;;;;;;;0.10;0.10;;;6.60;99.90;;;;;;5014367;28;20260;-64
2022/11/29 03:23:30;;;;;;;1.88;1.27;;;6.60;99.90;;;;;;5012105;28;20092;-64
2022/11/29 03:25:58;;;;;;;;;;;6.50;99.90;;;;;;5008473;28;20046;-64
2022/11/29 03:28:30;;;;;;;0.10;0.10;;;6.40;99.90;;;;;;5007783;28;20387;-65
2022/11/29 03:31:18;;;;;;;0.10;0.10;;;6.40;99.90;;;;;;5028722;28;20049;-64
2022/11/29 03:34:05;;;;;;;0.30;0.30;;;6.40;99.90;;;;;;5010059;28;20080;-64
2022/11/29 03:36:46;;;;;;;0.57;0.57;;;6.40;99.90;;;;;;5009500;28;20104;-64
2022/11/29 03:39:28;;;;;;;0.10;0.10;;;6.50;99.90;;;;;;5020697;28;20139;-64
2022/11/29 03:42:05;;;;;;;0.10;0.10;;;6.50;99.90;;;;;;5008193;28;20406;-64
2022/11/29 03:44:48;;;;;;;0.10;0.10;;;6.50;99.90;;;;;;5024547;28;20033;-64
2022/11/29 03:47:18;;;;;;;0.10;0.10;;;6.40;99.90;;;;;;5007586;28;20053;-64
2022/11/29 03:49:55;;;;;;;0.35;0.35;;;6.40;99.90;;;;;;5006419;28;20080;-64
2022/11/29 03:52:32;;;;;;;0.10;0.10;;;6.40;99.90;;;;;;5007248;28;20466;-64
2022/11/29 03:55:07;;;;;;;0.10;0.10;;;6.30;99.90;;;;;;5035523;28;20042;-64
2022/11/29 03:58:31;;;;;;;0.45;0.45;;;6.30;99.90;;;;;;5010574;28;20042;-64
2022/11/29 04:01:21;;;;;;;0.93;0.32;;;6.30;99.90;;;;;;4997857;28;20057;-64
2022/11/29 04:04:14;;;;;;;0.10;0.10;;;6.30;99.90;;;;;;5005776;28;20473;-64
2022/11/29 04:06:49;;;;;;;0.10;0.10;;;6.40;99.90;;;;;;5023295;28;20056;-64
2022/11/29 04:09:32;;;;;;;0.25;0.25;;;6.40;99.90;;;;;;5011523;28;20033;-64
2022/11/29 04:12:28;;;;;;;0.10;0.10;;;6.30;99.90;;;;;;5019093;28;20169;-64
2022/11/29 04:15:18;;;;;;;0.52;0.52;;;6.40;99.90;;;;;;5019121;28;20512;-64
2022/11/29 04:18:19;;;;;;;0.15;0.15;;;6.40;99.90;;;;;;5032692;28;20068;-64
2022/11/29 04:20:56;;;;;;;0.10;0.10;;;6.40;99.90;;;;;;5037602;28;20057;-64
2022/11/29 04:23:50;;;;;;;0.10;0.10;;;6.30;99.90;;;;;;5009898;28;20041;-64
2022/11/29 04:26:58;;;;;;;0.10;0.10;;;6.30;99.90;;;;;;5011605;28;20042;-64
2022/11/29 04:29:47;;;;;;;0.10;0.10;;;6.30;99.90;;;;;;5011239;28;20042;-64
2022/11/29 04:32:51;;;;;;;0.25;0.25;;;6.30;99.90;;;;;;5023087;28;20151;-64
2022/11/29 04:35:49;;;;;;;0.00;0.00;;;6.20;99.90;;;;;;5019166;28;20049;-64
2022/11/29 04:38:36;;;;;;;0.03;0.03;;;6.30;99.90;;;;;;5013484;28;20092;-64
2022/11/29 04:41:27;;;;;;;0.10;0.10;;;6.30;99.90;;;;;;5011491;28;20133;-64
2022/11/29 04:44:10;;;;;;;1.60;0.40;;;6.30;99.90;;;;;;5024888;28;20128;-64
2022/11/29 04:46:45;;;;;;;0.10;0.10;;;6.30;99.90;;;;;;5015360;28;20045;-64
2022/11/29 04:49:31;;;;;;;0.13;0.13;;;6.20;99.90;;;;;;5014513;28;20061;-64
2022/11/29 04:51:57;;;;;;;0.13;0.13;;;6.20;99.90;;;;;;5016234;28;20085;-64
2022/11/29 04:54:43;;;;;;;0.20;0.20;;;6.20;99.90;;;;;;5022447;28;20073;-64
2022/11/29 04:57:29;;;;;;;0.13;0.13;;;6.20;99.90;;;;;;5019660;28;20156;-64
2022/11/29 05:00:08;;;;;;;2.22;1.00;;;6.20;99.90;;;;;;5043396;28;20044;-64
2022/11/29 05:03:06;;;;;;;0.38;0.38;;;6.30;99.90;;;;;;5011472;28;20076;-64
2022/11/29 05:06:01;;;;;;;0.10;0.10;;;6.30;99.90;;;;;;5015420;28;20049;-64
2022/11/29 05:08:49;;;;;;;0.10;0.10;;;6.30;99.90;;;;;;5015559;28;20042;-64
2022/11/29 05:11:30;;;;;;;1.08;1.02;;;6.30;99.90;;;;;;5009763;28;20081;-64
2022/11/29 05:14:14;;;;;;;0.17;0.17;;;6.40;99.90;;;;;;5008918;28;20046;-64
2022/11/29 05:17:07;;;;;;;0.17;0.17;;;6.40;99.90;;;;;;5011601;28;20423;-64
2022/11/29 05:19:39;;;;;;;0.25;0.25;;;6.30;99.90;;;;;;5010801;28;20046;-64
2022/11/29 05:22:31;;;;;;;0.10;0.10;;;6.30;99.90;;;;;;5009941;28;20147;-64
2022/11/29 05:25:00;;;;;;;0.20;0.20;;;6.30;99.90;;;;;;5028992;28;20061;-64
2022/11/29 05:27:45;;;;;;;0.00;0.00;;;6.20;99.90;;;;;;5027238;28;20519;-64
2022/11/29 05:30:14;;;;;;;0.75;0.75;;;6.20;99.90;;;;;;5013463;28;20116;-64
2022/11/29 05:33:19;;;;;;;0.43;0.43;;;6.20;99.90;;;;;;5019229;28;20145;-64
2022/11/29 05:35:52;;;;;;;0.10;0.10;;;6.20;99.90;;;;;;5010895;28;20082;-65
2022/11/29 05:38:36;;;;;;;0.20;0.20;;;6.20;99.90;;;;;;5011111;28;20045;-64
2022/11/29 05:41:29;;;;;;;0.17;0.17;;;6.20;99.90;;;;;;5016156;28;20049;-64
2022/11/29 05:44:03;;;;;;;0.20;0.20;;;6.20;99.90;;;;;;5013982;28;20096;-64
2022/11/29 05:46:49;;;;;;;;;;;6.20;99.90;;;;;;5009976;28;20049;-64
2022/11/29 05:49:32;;;;;;;0.10;0.10;;;6.10;99.90;;;;;;5021968;28;19933;-64
2022/11/29 05:52:23;;;;;;;0.23;0.23;;;6.10;99.90;;;;;;5019913;28;20389;-64
2022/11/29 05:55:14;;;;;;;0.40;0.40;;;6.20;99.90;;;;;;5024752;28;20496;-64
2022/11/29 05:57:57;;;;;;;0.80;0.65;;;6.10;99.90;;;;;;5010635;28;20104;-64
2022/11/29 06:00:26;;;;;;;0.73;0.73;;;6.10;99.90;;;;;;5017605;28;20037;-64
2022/11/29 06:03:20;;;;;;;0.95;0.95;;;6.10;99.90;;;;;;5013492;28;20041;-64
2022/11/29 06:05:49;;;;;;;0.10;0.10;;;6.00;99.90;;;;;;5010495;28;20057;-65
2022/11/29 06:08:38;;;;;;;0.45;0.45;;;6.00;99.90;;;;;;5018100;28;20057;-64
2022/11/29 06:11:14;;;;;;;0.10;0.10;;;6.10;99.90;;;;;;5022809;28;20132;-65
2022/11/29 06:14:05;;;;;;;0.63;0.63;;;6.10;99.90;;;;;;5017662;28;20045;-64
2022/11/29 06:17:06;;;;;;;1.65;1.08;;;6.20;99.90;;;;;;5015762;28;20052;-65
2022/11/29 06:20:03;;;;;;;0.30;0.30;;;6.10;99.90;;;;;;5021382;28;20057;-65
2022/11/29 06:23:03;;;;;;;0.10;0.10;;;6.00;99.90;;;;;;5023688;28;20033;-65
2022/11/29 06:25:47;;;;;;;0.93;0.43;;;6.00;99.90;;;;;;5023783;28;20049;-65
2022/11/29 06:28:21;;;;;;;0.10;0.10;;;6.10;99.90;;;;;;5013585;28;20049;-65
2022/11/29 06:30:59;;;;;;;1.45;0.82;;;6.10;99.90;;;;;;5016835;28;20065;-65
2022/11/29 06:33:37;;;;;;;0.10;0.10;;;6.10;99.90;;;;;;5032710;28;20072;-65
2022/11/29 06:36:26;;;;;;;0.20;0.20;;;6.00;99.90;;;;;;5016383;28;20038;-65
2022/11/29 06:38:52;;;;;;;0.85;0.85;;;6.00;99.90;;;;;;5014619;28;20088;-65
2022/11/29 06:41:23;;;;;;;0.10;0.10;;;6.00;99.90;;;;;;5027457;28;20481;-65
2022/11/29 06:43:49;;;;;;;0.25;0.25;;;6.00;99.90;;;;;;5009642;28;20041;-65
2022/11/29 06:46:39;;;;;;;0.10;0.10;;;6.10;99.90;;;;;;5017583;28;20485;-65
2022/11/29 06:49:10;;;;;;;0.60;0.55;;;6.10;99.90;;;;;;5026048;28;20045;-65
2022/11/29 06:52:06;;;;;;;0.80;0.80;;;6.10;99.90;;;;;;5018170;28;20523;-64
2022/11/29 06:54:55;;;;;;;0.10;0.10;;;6.10;99.90;;;;;;5014247;28;20045;-65
2022/11/29 06:57:32;;;;;;;0.38;0.38;;;6.10;99.90;;;;;;5024303;28;20056;-64
2022/11/29 07:00:22;;;;;;;0.10;0.10;;;6.10;99.90;;;;;;5014902;28;20049;-64
2022/11/29 07:03:10;;;;;;;0.10;0.10;;;6.10;99.90;;;;;;5022036;28;20037;-65
2022/11/29 07:05:36;;;;;;;0.10;0.10;;;6.20;99.90;;;;;;5021993;28;20056;-64
2022/11/29 07:08:23;;;;;;;0.13;0.13;;;6.20;99.90;;;;;;5025974;28;20049;-64
2022/11/29 07:10:52;;;;;;;0.15;0.15;;;6.20;99.90;;;;;;5023778;28;20063;-65
2022/11/29 07:13:19;;;;;;;0.30;0.30;;;6.20;99.90;;;;;;5014198;28;20085;-64
2022/11/29 07:16:30;;;;;;;0.10;0.10;;;6.20;99.90;;;;;;5026408;28;20047;-65
2022/11/29 07:19:19;;;;;;;0.75;0.75;;;6.20;99.90;;;;;;5018634;28;20096;-65
2022/11/29 07:22:35;;;;;;;1.40;1.33;;;6.20;99.90;;;;;;5012561;28;20124;-65
2022/11/29 07:25:19;;;;;;;0.63;0.43;;;6.10;99.90;;;;;;5006556;28;20056;-65
2022/11/29 07:28:00;;;;;;;0.22;0.22;;;6.10;99.90;;;;;;5025196;28;20894;-65
2022/11/29 07:30:52;;;;;;;1.10;0.98;;;6.20;99.90;;;;;;5017395;28;20180;-65
2022/11/29 07:33:43;;;;;;;0.30;0.30;;;6.20;99.90;;;;;;5027537;28;20445;-65
2022/11/29 07:36:32;;;;;;;0.10;0.10;;;6.10;99.90;;;;;;5004318;28;20041;-65
2022/11/29 07:39:15;;;;;;;0.15;0.15;;;6.10;99.90;;;;;;5025384;28;20041;-65
2022/11/29 07:42:08;;;;;;;1.05;1.05;;;6.10;99.90;;;;;;5018569;28;20053;-65
2022/11/29 07:44:47;;;;;;;0.20;0.20;;;6.10;99.90;;;;;;5026619;28;20037;-65
2022/11/29 07:47:13;;;;;;;0.68;0.68;;;6.10;99.90;;;;;;5014180;28;20084;-65
2022/11/29 07:49:38;;;;;;;0.82;0.82;;;6.10;99.90;;;;;;5022724;28;20505;-65
2022/11/29 07:52:04;;;;;;;0.10;0.10;;;6.00;99.90;;;;;;5018092;28;20401;-65
2022/11/29 07:54:30;;;;;;;1.65;1.55;;;6.00;99.90;;;;;;5018613;28;20053;-65
2022/11/29 07:56:55;;;;;;;0.10;0.10;;;6.10;99.90;;;;;;5012255;28;20133;-65
2022/11/29 07:59:21;;;;;;;0.20;0.20;;;6.10;99.90;;;;;;5022816;28;20390;-64
2022/11/29 08:01:46;;;;;;;0.10;0.10;;;6.10;99.90;;;;;;5024191;28;20064;-64
2022/11/29 08:04:12;;;;;;;2.20;1.08;;;6.00;99.90;;;;;;5016915;28;20049;-64
2022/11/29 08:06:38;;;;;;;0.30;0.30;;;6.00;99.90;;;;;;5021093;28;20393;-65
2022/11/29 08:09:06;;;;;;;0.10;0.10;;;6.00;99.90;;;;;;5023252;28;20041;-64
2022/11/29 08:11:31;;;;;;;0.17;0.17;;;6.00;99.90;;;;;;5022180;28;20585;-65
2022/11/29 08:13:58;;;;;;;0.10;0.10;;;6.00;99.90;;;;;;5025803;28;20072;-64
2022/11/29 08:16:24;;;;;;;0.40;0.40;;;6.00;99.90;;;;;;5020390;28;20060;-65
2022/11/29 08:18:50;;;;;;;0.10;0.10;;;6.10;99.90;;;;;;5024119;28;20409;-64
2022/11/29 08:21:17;;;;;;;0.20;0.20;;;6.20;99.90;;;;;;5018015;28;20072;-64
2022/11/29 08:23:44;;;;;;;0.35;0.35;;;6.20;99.90;;;;;;5016810;28;20345;-65
2022/11/29 08:26:09;;;;;;;0.10;0.10;;;6.10;99.90;;;;;;5019735;28;20115;-65
2022/11/29 08:28:35;;;;;;;0.20;0.20;;;6.20;99.90;;;;;;5030033;28;20565;-64
2022/11/29 08:31:02;;;;;;;1.25;0.93;;;6.20;99.90;;;;;;5023223;28;20140;-65
2022/11/29 08:33:28;;;;;;;0.10;0.10;;;6.20;99.90;;;;;;5013633;28;20038;-64
2022/11/29 08:35:55;;;;;;;2.72;2.17;;;6.20;99.90;;;;;;5011034;28;20096;-64
2022/11/29 08:38:21;;;;;;;0.65;0.57;;;6.20;99.90;;;;;;5015673;28;20158;-64
2022/11/29 08:40:46;;;;;;;0.10;0.10;;;6.30;99.90;;;;;;5011726;28;20121;-64
2022/11/29 08:43:12;;;;;;;0.20;0.20;;;6.40;99.90;;;;;;5022661;28;20037;-65
2022/11/29 08:45:37;;;;;;;0.20;0.20;;;6.60;99.90;;;;;;5018923;28;20056;-64
2022/11/29 08:48:03;;;;;;;0.10;0.10;;;6.60;99.90;;;;;;5011790;28;20085;-64
2022/11/29 08:50:29;;;;;;;0.98;0.55;;;6.70;99.90;;;;;;5011454;28;20037;-64
2022/11/29 08:55:45;;;;;;;0.10;0.10;;;7.00;99.90;;;;;;5013718;28;20045;-65
2022/11/29 08:58:14;;;;;;;0.15;0.15;;;7.10;99.90;;;;;;5019564;28;20137;-64
2022/11/29 09:00:42;;;;;;;0.10;0.10;;;7.20;99.90;;;;;;5018210;28;20048;-64
2022/11/29 09:05:52;;;;;;;0.17;0.17;;;7.40;99.90;;;;;;5027331;28;20049;-64
2022/11/29 09:08:18;;;;;;;0.10;0.10;;;7.50;99.90;;;;;;5016332;28;20136;-64
2022/11/29 09:10:44;;;;;;;0.00;0.00;;;7.60;99.90;;;;;;5020963;28;20160;-65
2022/11/29 09:13:11;;;;;;;0.05;0.05;;;7.60;99.90;;;;;;5027928;28;20488;-65
2022/11/29 09:15:37;;;;;;;2.10;1.95;;;7.70;99.90;;;;;;5021615;28;20049;-65
2022/11/29 09:18:04;;;;;;;0.10;0.10;;;7.80;99.90;;;;;;5027564;28;20076;-65
2022/11/29 09:20:31;;;;;;;0.10;0.10;;;7.80;99.90;;;;;;5019468;28;20045;-65
2022/11/29 09:22:58;;;;;;;0.35;0.35;;;7.90;99.90;;;;;;5020277;28;20053;-65
2022/11/29 09:25:23;;;;;;;0.00;0.00;;;8.00;99.90;;;;;;5016644;28;20140;-65
2022/11/29 09:27:50;;;;;;;0.10;0.10;;;8.00;99.90;;;;;;5026762;28;20548;-65
2022/11/29 09:30:16;;;;;;;0.10;0.10;;;8.10;99.90;;;;;;5028776;28;20057;-65
2022/11/29 09:32:42;;;;;;;0.00;0.00;;;8.10;99.90;;;;;;5009771;28;20057;-65
2022/11/29 09:35:07;;;;;;;0.08;0.08;;;8.20;99.90;;;;;;5034248;28;20630;-65
2022/11/29 09:37:35;;;;;;;0.10;0.10;;;8.20;99.90;;;;;;5019035;28;20045;-65
2022/11/29 09:40:02;;;;;;;0.10;0.10;;;8.30;99.90;;;;;;5030760;28;20104;-64
2022/11/29 09:43:17;;;;;;;0.10;0.10;;;8.30;99.90;;;;;;5037980;28;20480;-65
2022/11/29 09:45:45;;;;;;;0.10;0.10;;;8.40;99.90;;;;;;5017129;28;20071;-65
2022/11/29 09:48:25;;;;;;;0.25;0.25;;;8.50;99.90;;;;;;5016620;28;20504;-65
2022/11/29 09:50:55;;;;;;;0.00;0.00;;;8.50;99.90;;;;;;5027771;28;20049;-65
2022/11/29 09:54:01;;;;;;;0.20;0.20;;;8.60;99.90;;;;;;5044380;28;20144;-64
2022/11/29 09:56:45;;;;;;;0.10;0.10;;;8.60;99.90;;;;;;5027793;28;20091;-65
2022/11/29 09:59:20;;;;;;;0.03;0.03;;;8.60;99.90;;;;;;5045330;28;20036;-65
2022/11/29 10:02:14;;;;;;;0.10;0.10;;;8.70;99.90;;;;;;5032876;28;20050;-65
2022/11/29 10:04:45;;;;;;;0.10;0.10;;;8.70;99.90;;;;;;5031452;28;20047;-65
2022/11/29 10:07:36;;;;;;;0.10;0.10;;;8.70;99.90;;;;;;5040062;28;20041;-65
2022/11/29 10:10:08;;;;;;;0.00;0.00;;;8.70;99.90;;;;;;5028499;28;20103;-65
2022/11/29 10:12:44;;;;;;;0.10;0.10;;;8.80;99.90;;;;;;5035041;28;20086;-65
2022/11/29 10:15:21;;;;;;;0.20;0.20;;;8.80;99.90;;;;;;5029038;28;20429;-65
2022/11/29 10:18:02;;;;;;;0.10;0.10;;;8.80;99.90;;;;;;5037999;28;20041;-65
2022/11/29 10:20:33;;;;;;;0.10;0.10;;;8.80;99.90;;;;;;5020165;28;20037;-65
2022/11/29 10:23:08;;;;;;;0.10;0.10;;;8.90;99.90;;;;;;5028009;28;20037;-65
2022/11/29 10:25:43;;;;;;;0.45;0.40;;;8.90;99.90;;;;;;5015089;28;20615;-65
2022/11/29 10:28:20;;;;;;;0.45;0.45;;;8.90;99.90;;;;;;5011940;28;20041;-66
2022/11/29 10:30:46;;;;;;;0.10;0.10;;;9.00;99.90;;;;;;5019400;28;20088;-65
2022/11/29 10:33:19;;;;;;;0.10;0.10;;;9.10;99.90;;;;;;5015593;28;20057;-64
2022/11/29 10:35:47;;;;;;;0.10;0.10;;;9.10;99.90;;;;;;5017794;28;20053;-65
2022/11/29 10:38:14;;;;;;;0.20;0.20;;;9.20;99.90;;;;;;5023225;28;20041;-65
2022/11/29 10:40:44;;;;;;;0.10;0.10;;;9.30;99.90;;;;;;5012164;28;20116;-65
2022/11/29 10:43:10;;;;;;;0.00;0.00;;;9.30;99.90;;;;;;5032406;28;20041;-65
2022/11/29 10:45:48;;;;;;;0.10;0.10;;;9.40;99.90;;;;;;5019205;28;20592;-65
2022/11/29 10:48:27;;;;;;;0.03;0.03;;;9.50;99.90;;;;;;5021181;28;20046;-65
2022/11/29 10:50:53;;;;;;;0.10;0.10;;;9.50;99.90;;;;;;5018229;28;20052;-65
2022/11/29 10:53:23;;;;;;;0.15;0.15;;;9.50;99.90;;;;;;5030385;28;20404;-65
2022/11/29 10:55:52;;;;;;;0.10;0.10;;;9.60;99.90;;;;;;5041536;28;20718;-65
2022/11/29 10:58:24;;;;;;;0.00;0.00;;;9.60;99.90;;;;;;5025011;28;20057;-65
2022/11/29 11:00:59;;;;;;;0.10;0.10;;;9.70;99.90;;;;;;5020074;28;20038;-65
2022/11/29 11:03:38;;;;;;;0.10;0.10;;;9.70;99.90;;;;;;5024433;28;20042;-65
2022/11/29 11:06:18;;;;;;;0.10;0.10;;;9.70;99.90;;;;;;5035011;28;20063;-65
2022/11/29 11:08:50;;;;;;;0.10;0.10;;;9.70;99.90;;;;;;5048622;28;20064;-65
2022/11/29 11:11:29;;;;;;;0.10;0.10;;;9.80;99.90;;;;;;5037595;28;20053;-65
2022/11/29 11:14:23;;;;;;;0.10;0.10;;;9.80;99.90;;;;;;5013729;28;20045;-65
2022/11/29 11:16:48;;;;;;;0.20;0.20;;;9.70;99.90;;;;;;5016092;28;20038;-65
2022/11/29 11:19:27;;;;;;;0.10;0.10;;;9.80;99.90;;;;;;5019599;28;20053;-65
2022/11/29 11:21:54;;;;;;;0.00;0.00;;;9.70;99.90;;;;;;5018424;28;20065;-65
2022/11/29 11:24:27;;;;;;;1.35;1.25;;;9.80;99.90;;;;;;5013266;28;20053;-66
2022/11/29 11:26:53;;;;;;;0.08;0.08;;;9.80;99.90;;;;;;5047516;28;20052;-65
2022/11/29 11:29:23;;;;;;;0.10;0.10;;;9.80;99.90;;;;;;5026217;28;20053;-65
2022/11/29 11:31:57;;;;;;;0.10;0.10;;;9.80;99.90;;;;;;5022947;28;20149;-65
2022/11/29 11:34:27;;;;;;;0.10;0.10;;;9.90;99.90;;;;;;5008242;28;20030;-65
2022/11/29 11:37:13;;;;;;;0.10;0.10;;;9.90;99.90;;;;;;5015274;28;20049;-65
2022/11/29 11:39:40;;;;;;;0.00;0.00;;;9.90;99.90;;;;;;5007377;28;20045;-65
2022/11/29 11:44:55;;;;;;;0.10;0.10;;;9.90;99.90;;;;;;5008045;28;20132;-65
2022/11/29 11:47:25;;;;;;;0.13;0.13;;;10.00;99.90;;;;;;5009700;28;20545;-65
2022/11/29 11:50:02;;;;;;;0.20;0.20;;;10.00;99.90;;;;;;5010156;28;20033;-65
2022/11/29 11:52:29;;;;;;;0.20;0.20;;;10.00;99.90;;;;;;5008496;28;20046;-65
2022/11/29 11:54:59;;;;;;;0.00;0.00;;;10.00;99.90;;;;;;5008218;28;20141;-65
2022/11/29 11:57:25;;;;;;;0.10;0.10;;;10.00;99.90;;;;;;5007222;28;20042;-65
2022/11/29 11:59:54;;;;;;;0.00;0.00;;;10.00;99.90;;;;;;5022189;28;20049;-65
2022/11/29 12:02:39;;;;;;;0.20;0.20;;;10.00;99.90;;;;;;5018762;28;20038;-65
2022/11/29 12:05:14;;;;;;;0.40;0.40;;;10.10;99.90;;;;;;5037307;28;20234;-65
2022/11/29 12:07:50;;;;;;;0.10;0.10;;;10.20;99.90;;;;;;5032171;28;20034;-65
2022/11/29 12:10:29;;;;;;;0.10;0.10;;;10.20;99.90;;;;;;5036096;28;20034;-65
2022/11/29 12:12:57;;;;;;;0.10;0.10;;;10.30;99.90;;;;;;5012660;28;20379;-65
2022/11/29 12:15:43;;;;;;;0.20;0.20;;;10.40;99.90;;;;;;5015258;28;20504;-65
2022/11/29 12:18:34;;;;;;;0.10;0.10;;;10.40;99.90;;;;;;5017265;28;20083;-65
2022/11/29 12:21:13;;;;;;;0.10;0.10;;;10.50;99.90;;;;;;5021448;28;20120;-66
2022/11/29 12:23:53;;;;;;;0.20;0.20;;;10.50;99.90;;;;;;5026754;28;20041;-65
2022/11/29 12:26:27;;;;;;;0.17;0.17;;;10.50;99.90;;;;;;5038413;28;20033;-65
2022/11/29 12:28:53;;;;;;;0.10;0.10;;;10.50;99.90;;;;;;5025381;28;20389;-65
2022/11/29 12:31:45;;;;;;;0.10;0.10;;;10.50;99.90;;;;;;5022700;28;20042;-65
2022/11/29 12:34:48;;;;;;;0.17;0.17;;;10.50;99.90;;;;;;5031500;28;20085;-65
2022/11/29 12:37:35;;;;;;;0.45;0.45;;;10.50;99.90;;;;;;5022446;28;20116;-66
2022/11/29 12:40:26;;;;;;;0.10;0.10;;;10.50;99.90;;;;;;5014285;28;20064;-65
2022/11/29 12:43:09;;;;;;;0.03;0.03;;;10.50;99.90;;;;;;5014050;28;20076;-65
2022/11/29 12:46:00;;;;;;;0.10;0.10;;;10.50;99.90;;;;;;5014676;28;20402;-65
2022/11/29 12:48:48;;;;;;;0.10;0.10;;;10.60;99.90;;;;;;5020039;28;20405;-65
2022/11/29 12:51:22;;;;;;;0.10;0.10;;;10.60;99.90;;;;;;5019334;28;20113;-65
2022/11/29 12:54:25;;;;;;;0.30;0.30;;;10.60;99.90;;;;;;5022407;28;20041;-65
2022/11/29 12:57:09;;;;;;;0.10;0.10;;;10.60;99.90;;;;;;5012822;28;20465;-65
2022/11/29 12:59:46;;;;;;;0.10;0.10;;;10.60;99.90;;;;;;5022251;28;20041;-65
2022/11/29 13:02:56;;;;;;;0.10;0.10;;;10.60;99.90;;;;;;5025985;28;20419;-65
2022/11/29 13:05:25;;;;;;;0.40;0.40;;;10.60;99.90;;;;;;5025469;28;20171;-66
2022/11/29 13:08:08;;;;;;;0.90;0.63;;;10.60;99.90;;;;;;5015052;28;20371;-66
2022/11/29 13:10:38;;;;;;;;;;;10.50;99.90;;;;;;5025231;28;20120;-65
2022/11/29 13:13:24;;;;;;;0.10;0.10;;;10.50;99.90;;;;;;5024880;28;19971;-65
2022/11/29 13:15:58;;;;;;;0.10;0.10;;;10.50;99.90;;;;;;5019052;28;20061;-65
2022/11/29 13:18:35;;;;;;;0.10;0.10;;;10.50;99.90;;;;;;5016603;28;20453;-65
2022/11/29 13:21:30;;;;;;;0.20;0.20;;;10.50;99.90;;;;;;5028648;28;20128;-64
2022/11/29 13:24:02;;;;;;;0.35;0.35;;;10.50;99.90;;;;;;5027108;28;20052;-66
2022/11/29 13:26:29;;;;;;;0.20;0.20;;;10.40;99.90;;;;;;5017778;28;20509;-65
2022/11/29 13:28:56;;;;;;;0.10;0.10;;;10.40;99.90;;;;;;5036158;28;20136;-66
2022/11/29 13:31:24;;;;;;;0.10;0.10;;;10.40;99.90;;;;;;5027443;28;20099;-65
2022/11/29 13:34:03;;;;;;;0.00;0.00;;;10.50;99.90;;;;;;5024840;28;20053;-65
2022/11/29 13:36:44;;;;;;;0.10;0.10;;;10.50;99.90;;;;;;5027208;28;20156;-66
2022/11/29 13:39:24;;;;;;;0.20;0.20;;;10.50;99.90;;;;;;5028811;28;20445;-65
2022/11/29 13:42:12;;;;;;;0.20;0.20;;;10.40;99.90;;;;;;5021755;28;20041;-65
2022/11/29 13:44:56;;;;;;;0.28;0.28;;;10.40;99.90;;;;;;5029854;28;20052;-65
2022/11/29 13:47:22;;;;;;;0.10;0.10;;;10.40;99.90;;;;;;5029323;28;20053;-65
2022/11/29 13:49:58;;;;;;;0.10;0.10;;;10.40;99.90;;;;;;5022688;28;20068;-66
2022/11/29 13:52:46;;;;;;;0.10;0.10;;;10.40;99.90;;;;;;5019383;28;20049;-65
2022/11/29 13:55:11;;;;;;;0.10;0.10;;;10.50;99.90;;;;;;5024265;28;20045;-67
2022/11/29 13:58:04;;;;;;;0.10;0.10;;;10.40;99.90;;;;;;5023493;28;20452;-65
2022/11/29 14:00:42;;;;;;;0.03;0.03;;;10.30;99.90;;;;;;5030376;28;20057;-65